< < Back
Terminal Aerodrome Forecast


Current Version              Previous Versions:   1  2  3  4  5  6  7  8  9  

Terminal Aerodrome Forecast

333
FTUS42 KFFC 221500 AAA
TAFCSG
TAF AMD
KCSG 221502Z 2215/2312 01008G16KT P6SM SKC
     FM230000 00000KT P6SM SKC=



Latest METAR

942
SAUS70 KWBC 231100
MTRCSG
METAR KCSG 231051Z AUTO 00000KT 10SM CLR 08/05 A3010 RMK AO2 SLP191
T00780050


USA.gov is the U.S. government's official web portal to all federal, state and local government web resources and services.